createdAt,value
2019-05-03T00:00:08.632Z,35.27
2019-05-03T00:02:48.260Z,33.57
2019-05-03T00:05:29.961Z,38.13
2019-05-03T00:08:02.177Z,36.37
2019-05-03T00:10:31.763Z,34.20
2019-05-03T00:13:01.920Z,38.03
2019-05-03T00:15:32.359Z,38.80
2019-05-03T00:18:02.347Z,35.67
2019-05-03T00:20:32.567Z,36.90
2019-05-03T00:23:02.794Z,40.07
2019-05-03T00:25:32.638Z,42.40
2019-05-03T00:28:01.879Z,36.97
2019-05-03T00:30:51.683Z,38.33
2019-05-03T00:33:19.895Z,37.47
2019-05-03T00:35:51.840Z,38.17
2019-05-03T00:38:21.763Z,37.67
2019-05-03T00:40:52.239Z,41.53
2019-05-03T00:43:22.148Z,36.93
2019-05-03T00:45:51.675Z,34.27
2019-05-03T00:48:21.946Z,41.67
2019-05-03T00:50:51.792Z,34.37
2019-05-03T00:53:22.222Z,43.33
2019-05-03T00:55:52.320Z,37.97
2019-05-03T00:58:22.244Z,37.47
2019-05-03T01:00:52.297Z,41.70
2019-05-03T01:03:21.971Z,39.43
2019-05-03T01:06:11.522Z,40.60
2019-05-03T01:08:41.863Z,35.07
2019-05-03T01:11:10.155Z,41.43
2019-05-03T01:13:38.612Z,36.40
2019-05-03T01:16:08.639Z,35.73
2019-05-03T01:18:37.095Z,34.03
2019-05-03T01:21:05.539Z,30.30
2019-05-03T01:23:33.927Z,30.10
2019-05-03T01:26:02.567Z,31.23
2019-05-03T01:28:32.373Z,38.67
2019-05-03T01:31:02.560Z,32.93
2019-05-03T01:33:32.182Z,30.83
2019-05-03T01:36:02.507Z,31.67
2019-05-03T01:38:31.869Z,33.17
2019-05-03T01:41:01.750Z,33.27
2019-05-03T01:43:31.772Z,38.80
2019-05-03T01:46:02.528Z,34.73
2019-05-03T01:48:38.111Z,34.80
2019-05-03T01:51:14.175Z,42.10
2019-05-03T01:53:42.551Z,42.10
2019-05-03T01:56:11.826Z,43.17
2019-05-03T01:58:41.708Z,46.60
2019-05-03T02:01:28.927Z,41.50
2019-05-03T02:03:58.959Z,44.10
2019-05-03T02:06:27.326Z,44.77
2019-05-03T02:08:55.708Z,50.03
2019-05-03T02:11:24.103Z,51.17
2019-05-03T02:13:52.471Z,52.40
2019-05-03T02:16:21.856Z,56.77
2019-05-03T02:18:51.824Z,56.97
2019-05-03T02:21:21.608Z,62.73
2019-05-03T02:23:51.915Z,61.50
2019-05-03T02:26:22.305Z,63.87
2019-05-03T02:28:50.339Z,70.03
2019-05-03T02:31:18.732Z,55.33
2019-05-03T02:33:47.103Z,59.00
2019-05-03T02:36:15.480Z,58.67
2019-05-03T02:38:43.936Z,54.27
2019-05-03T02:41:13.448Z,60.33
2019-05-03T02:43:56.206Z,58.67
2019-05-03T02:46:26.327Z,57.27
2019-05-03T02:49:07.871Z,57.60
2019-05-03T02:51:36.257Z,69.63
2019-05-03T02:54:05.654Z,67.77
2019-05-03T02:56:35.736Z,66.93
2019-05-03T02:59:06.167Z,62.67
2019-05-03T03:01:35.853Z,70.27
2019-05-03T03:04:05.358Z,70.53
2019-05-03T03:06:36.703Z,68.80
2019-05-03T03:09:06.537Z,65.87
2019-05-03T03:11:38.129Z,62.50
2019-05-03T03:14:10.237Z,65.27
2019-05-03T03:16:41.148Z,62.90
2019-05-03T03:19:11.185Z,63.83
2019-05-03T03:21:46.629Z,57.67
2019-05-03T03:24:17.542Z,56.43
2019-05-03T03:26:48.996Z,55.83
2019-05-03T03:29:18.919Z,62.20
2019-05-03T03:32:20.845Z,50.10
2019-05-03T03:35:02.995Z,56.77
2019-05-03T03:37:29.104Z,56.03
2019-05-03T03:39:57.551Z,50.37
2019-05-03T03:42:28.004Z,52.93
2019-05-03T03:44:57.836Z,55.30
2019-05-03T03:47:29.952Z,57.90
2019-05-03T03:49:58.869Z,51.97
2019-05-03T03:52:29.835Z,57.20
2019-05-03T03:55:00.415Z,64.03
2019-05-03T03:57:29.735Z,57.10
2019-05-03T03:59:58.696Z,61.40
2019-05-03T04:02:27.144Z,64.07
2019-05-03T04:04:56.283Z,66.10
2019-05-03T04:07:26.151Z,56.97
2019-05-03T04:09:56.304Z,58.37
2019-05-03T04:12:26.466Z,59.93
2019-05-03T04:15:05.988Z,55.83
2019-05-03T04:17:51.398Z,60.40
2019-05-03T04:20:21.427Z,49.17
2019-05-03T04:22:49.829Z,58.23
2019-05-03T04:25:18.560Z,54.53
2019-05-03T04:27:46.960Z,52.23
2019-05-03T04:30:16.519Z,49.77
2019-05-03T04:32:45.524Z,49.10
2019-05-03T04:35:16.423Z,53.50
2019-05-03T04:37:45.364Z,45.63
2019-05-03T04:40:15.659Z,50.10
2019-05-03T04:42:46.339Z,41.67
2019-05-03T04:45:16.479Z,41.27
2019-05-03T04:47:46.294Z,44.40
2019-05-03T04:50:16.269Z,38.30
2019-05-03T04:52:46.305Z,40.23
2019-05-03T04:55:15.984Z,35.47
2019-05-03T04:57:49.199Z,35.60
2019-05-03T05:00:16.048Z,31.50
2019-05-03T05:02:45.791Z,30.90
2019-05-03T05:05:15.399Z,35.07
2019-05-03T05:07:45.655Z,30.13
2019-05-03T05:10:15.346Z,30.07
2019-05-03T05:12:45.882Z,28.87
2019-05-03T05:15:15.703Z,32.63
2019-05-03T05:18:02.014Z,36.27
2019-05-03T05:20:37.999Z,25.07
2019-05-03T05:23:06.389Z,24.17
2019-05-03T05:25:39.213Z,26.03
2019-05-03T05:28:09.247Z,27.27
2019-05-03T05:30:37.623Z,23.77
2019-05-03T05:33:07.651Z,24.10
2019-05-03T05:35:36.023Z,19.40
2019-05-03T05:38:04.757Z,26.00
2019-05-03T05:40:34.894Z,23.77
2019-05-03T05:43:04.900Z,22.07
2019-05-03T05:45:34.837Z,22.17
2019-05-03T05:48:05.263Z,26.50
2019-05-03T05:50:38.207Z,20.57
2019-05-03T05:53:06.657Z,19.10
2019-05-03T05:55:51.903Z,27.00
2019-05-03T05:58:28.103Z,25.47
2019-05-03T06:00:58.199Z,26.90
2019-05-03T06:03:26.575Z,23.20
2019-05-03T06:05:56.595Z,20.63
2019-05-03T06:08:38.595Z,21.10
2019-05-03T06:11:25.812Z,23.10
2019-05-03T06:14:05.055Z,26.87
2019-05-03T06:16:41.656Z,21.27
2019-05-03T06:19:11.687Z,19.53
2019-05-03T06:21:57.905Z,20.10
2019-05-03T06:24:27.939Z,15.73
2019-05-03T06:27:00.700Z,19.23
2019-05-03T06:29:29.091Z,16.80
2019-05-03T06:32:02.108Z,14.37
2019-05-03T06:34:30.488Z,15.73
2019-05-03T06:37:00.526Z,10.57
2019-05-03T06:39:29.163Z,16.17
2019-05-03T06:41:57.539Z,14.83
2019-05-03T06:44:28.642Z,12.33
2019-05-03T06:46:56.039Z,13.47
2019-05-03T06:49:25.523Z,13.70
2019-05-03T06:51:54.663Z,10.37
2019-05-03T06:54:26.945Z,14.60
2019-05-03T06:56:55.365Z,16.00
2019-05-03T06:59:35.769Z,11.77
2019-05-03T07:02:05.832Z,8.67
2019-05-03T07:04:35.852Z,13.07
2019-05-03T07:07:21.772Z,12.57
2019-05-03T07:09:51.799Z,11.87
2019-05-03T07:12:20.178Z,10.67
2019-05-03T07:14:50.455Z,13.67
2019-05-03T07:17:18.663Z,9.83
2019-05-03T07:19:47.045Z,14.13
2019-05-03T07:22:15.491Z,14.57
2019-05-03T07:24:45.519Z,14.70
2019-05-03T07:27:15.857Z,13.10
2019-05-03T07:29:44.610Z,11.27
2019-05-03T07:32:13.028Z,9.90
2019-05-03T07:34:41.412Z,13.53
2019-05-03T07:37:09.787Z,12.30
2019-05-03T07:39:38.176Z,12.80
2019-05-03T07:42:06.553Z,8.17
2019-05-03T07:44:34.997Z,13.17
2019-05-03T07:47:04.748Z,12.40
2019-05-03T07:49:35.532Z,12.20
2019-05-03T07:52:05.577Z,10.13
2019-05-03T07:54:34.912Z,13.77
2019-05-03T07:57:05.265Z,11.53
2019-05-03T07:59:35.588Z,10.60
2019-05-03T08:02:05.663Z,11.00
2019-05-03T08:04:35.830Z,9.77
2019-05-03T08:07:04.648Z,9.47
2019-05-03T08:09:34.884Z,12.33
2019-05-03T08:12:05.086Z,11.13
2019-05-03T08:14:35.496Z,11.13
2019-05-03T08:17:05.072Z,9.90
2019-05-03T08:19:35.538Z,13.30
2019-05-03T08:22:04.854Z,7.33
2019-05-03T08:24:34.582Z,9.03
2019-05-03T08:27:04.998Z,8.83
2019-05-03T08:29:35.020Z,10.30
2019-05-03T08:32:21.639Z,10.43
2019-05-03T08:34:52.724Z,10.30
2019-05-03T08:37:27.906Z,8.43
2019-05-03T08:39:55.660Z,8.03
2019-05-03T08:42:25.814Z,10.87
2019-05-03T08:44:55.346Z,9.97
2019-05-03T08:47:24.805Z,5.03
2019-05-03T08:49:55.248Z,7.60
2019-05-03T08:52:24.822Z,12.93
2019-05-03T08:54:55.005Z,7.87
2019-05-03T08:57:25.351Z,7.93
2019-05-03T08:59:54.977Z,9.73
2019-05-03T09:02:25.578Z,8.00
2019-05-03T09:04:54.658Z,11.40
2019-05-03T09:07:25.318Z,9.63
2019-05-03T09:09:55.257Z,6.93
2019-05-03T09:12:25.257Z,6.67
2019-05-03T09:14:54.651Z,7.10
2019-05-03T09:17:24.683Z,13.17
2019-05-03T09:19:54.809Z,11.30
2019-05-03T09:22:25.529Z,8.50
2019-05-03T09:24:54.704Z,12.27
2019-05-03T09:27:24.697Z,8.30
2019-05-03T09:29:55.630Z,9.57
2019-05-03T09:32:25.494Z,11.87
2019-05-03T09:34:55.065Z,7.03
2019-05-03T09:37:25.001Z,8.97
2019-05-03T09:39:55.248Z,4.97
2019-05-03T09:42:24.817Z,11.97
2019-05-03T09:44:55.450Z,7.23
2019-05-03T09:47:25.289Z,8.93
2019-05-03T09:49:55.684Z,7.90
2019-05-03T09:52:25.052Z,8.57
2019-05-03T09:54:55.295Z,13.57
2019-05-03T09:57:24.730Z,5.47
2019-05-03T09:59:59.222Z,6.90
2019-05-03T10:02:24.629Z,7.20
2019-05-03T10:04:55.258Z,6.40
2019-05-03T10:07:25.603Z,5.73
2019-05-03T10:09:55.250Z,4.57
2019-05-03T10:12:25.508Z,7.87
2019-05-03T10:14:55.664Z,5.73
2019-05-03T10:17:35.275Z,10.47
2019-05-03T10:20:10.112Z,9.30
2019-05-03T10:22:38.491Z,10.83
2019-05-03T10:25:07.532Z,10.90
2019-05-03T10:27:45.898Z,6.90
2019-05-03T10:30:18.174Z,5.67
2019-05-03T10:33:06.007Z,6.47
2019-05-03T10:35:35.439Z,5.57
2019-05-03T10:38:05.808Z,3.10
2019-05-03T10:40:35.692Z,4.87
2019-05-03T10:43:05.448Z,6.47
2019-05-03T10:45:35.475Z,7.13
2019-05-03T10:48:04.741Z,11.30
2019-05-03T10:50:34.809Z,11.23
2019-05-03T10:53:05.340Z,6.37
2019-05-03T10:55:35.819Z,7.03
2019-05-03T10:58:17.627Z,9.63
2019-05-03T11:00:52.930Z,5.77
2019-05-03T11:03:18.483Z,8.30
2019-05-03T11:05:46.864Z,7.53
2019-05-03T11:08:15.243Z,6.27
2019-05-03T11:10:44.469Z,7.63
2019-05-03T11:13:15.286Z,4.50
2019-05-03T11:15:44.384Z,8.43
2019-05-03T11:18:14.734Z,9.90
2019-05-03T11:20:45.128Z,10.63
2019-05-03T11:23:14.654Z,7.10
2019-05-03T11:25:45.056Z,5.50
2019-05-03T11:28:14.899Z,6.67
2019-05-03T11:30:53.627Z,6.63
2019-05-03T11:33:15.745Z,7.70
2019-05-03T11:35:48.434Z,7.07
2019-05-03T11:38:18.439Z,7.73
2019-05-03T11:40:46.831Z,7.20
2019-05-03T11:43:16.271Z,2.13
2019-05-03T11:45:44.954Z,7.17
2019-05-03T11:48:14.818Z,5.20
2019-05-03T11:50:45.302Z,4.40
2019-05-03T11:53:14.537Z,8.03
2019-05-03T11:55:46.275Z,5.47
2019-05-03T11:58:21.001Z,4.13
2019-05-03T12:00:51.689Z,11.07
2019-05-03T12:03:21.703Z,6.37
2019-05-03T12:05:51.720Z,7.67
2019-05-03T12:08:20.098Z,5.13
2019-05-03T12:10:57.174Z,9.93
2019-05-03T12:13:29.183Z,5.33
2019-05-03T12:15:57.965Z,5.20
2019-05-03T12:18:27.035Z,10.80
2019-05-03T12:20:57.716Z,5.03
2019-05-03T12:23:26.842Z,7.23
2019-05-03T12:25:56.328Z,7.73
2019-05-03T12:28:25.719Z,8.20
2019-05-03T12:30:54.192Z,7.90
2019-05-03T12:33:22.565Z,5.13
2019-05-03T12:35:50.931Z,5.47
2019-05-03T12:38:19.318Z,5.37
2019-05-03T12:40:47.688Z,9.30
2019-05-03T12:43:16.328Z,6.77
2019-05-03T12:45:44.707Z,5.07
2019-05-03T12:48:13.076Z,7.90
2019-05-03T12:50:41.833Z,9.97
2019-05-03T12:53:10.518Z,15.07
2019-05-03T12:55:38.896Z,5.27
2019-05-03T12:58:07.263Z,6.63
2019-05-03T13:00:40.072Z,11.53
2019-05-03T13:03:10.105Z,5.83
2019-05-03T13:05:38.467Z,5.00
2019-05-03T13:08:32.403Z,5.93
2019-05-03T13:11:00.775Z,4.57
2019-05-03T13:13:29.156Z,10.70
2019-05-03T13:15:57.543Z,10.17
2019-05-03T13:18:25.918Z,4.90
2019-05-03T13:20:55.869Z,6.77
2019-05-03T13:23:25.371Z,5.60
2019-05-03T13:25:53.976Z,7.37
2019-05-03T13:28:22.359Z,5.33
2019-05-03T13:30:50.737Z,4.27
2019-05-03T13:33:19.108Z,7.83
2019-05-03T13:35:47.496Z,7.27
2019-05-03T13:38:15.863Z,4.97
2019-05-03T13:40:45.336Z,4.63
2019-05-03T13:43:15.057Z,4.73
2019-05-03T13:45:44.995Z,11.47
2019-05-03T13:48:15.557Z,6.53
2019-05-03T13:50:44.577Z,14.67
2019-05-03T13:53:13.211Z,6.23
2019-05-03T13:55:41.575Z,13.83
2019-05-03T13:58:09.964Z,12.17
2019-05-03T14:00:38.351Z,13.57
2019-05-03T14:03:06.732Z,5.37
2019-05-03T14:05:35.303Z,4.17
2019-05-03T14:08:05.085Z,7.17
2019-05-03T14:10:35.742Z,8.23
2019-05-03T14:13:05.586Z,8.07
2019-05-03T14:15:34.840Z,6.80
2019-05-03T14:18:05.587Z,7.13
2019-05-03T14:20:35.220Z,8.83
2019-05-03T14:23:05.210Z,7.27
2019-05-03T14:25:35.087Z,7.50
2019-05-03T14:28:05.335Z,7.47
2019-05-03T14:30:34.656Z,12.10
2019-05-03T14:33:05.103Z,9.37
2019-05-03T14:35:34.694Z,7.70
2019-05-03T14:38:05.747Z,8.57
2019-05-03T14:40:33.364Z,10.90
2019-05-03T14:43:02.112Z,8.47
2019-05-03T14:45:30.488Z,8.20
2019-05-03T14:47:58.863Z,9.03
2019-05-03T14:50:27.253Z,10.50
2019-05-03T14:52:57.078Z,11.20
2019-05-03T14:55:27.228Z,10.83
2019-05-03T14:58:14.811Z,12.57
2019-05-03T15:01:01.612Z,14.53
2019-05-03T15:03:30.157Z,8.63
2019-05-03T15:05:58.647Z,10.63
2019-05-03T15:08:27.017Z,11.33
2019-05-03T15:10:55.387Z,12.50
2019-05-03T15:13:25.117Z,11.13
2019-05-03T15:15:54.745Z,9.40
2019-05-03T15:18:25.381Z,13.97
2019-05-03T15:20:56.563Z,11.77
2019-05-03T15:23:25.645Z,11.10
2019-05-03T15:25:54.609Z,13.70
2019-05-03T15:28:25.130Z,9.43
2019-05-03T15:30:55.085Z,11.20
2019-05-03T15:33:23.448Z,12.80
2019-05-03T15:35:51.848Z,11.27
2019-05-03T15:38:20.224Z,11.93
2019-05-03T15:40:48.604Z,12.93
2019-05-03T15:43:28.865Z,13.80
2019-05-03T15:46:02.103Z,10.40
2019-05-03T15:48:32.124Z,15.73
2019-05-03T15:51:00.739Z,12.43
2019-05-03T15:53:29.111Z,13.90
2019-05-03T15:55:57.513Z,11.40
2019-05-03T15:58:25.901Z,13.87
2019-05-03T16:00:55.411Z,15.77
2019-05-03T16:03:25.259Z,18.23
2019-05-03T16:05:55.606Z,12.53
2019-05-03T16:08:24.832Z,12.27
2019-05-03T16:10:54.898Z,15.80
2019-05-03T16:13:25.204Z,12.20
2019-05-03T16:15:55.317Z,15.53
2019-05-03T16:18:24.582Z,16.07
2019-05-03T16:20:54.565Z,12.60
2019-05-03T16:23:25.090Z,16.33
2019-05-03T16:25:54.408Z,14.93
2019-05-03T16:28:33.580Z,13.37
2019-05-03T16:31:05.109Z,16.33
2019-05-03T16:33:34.918Z,14.10
2019-05-03T16:36:05.369Z,11.47
2019-05-03T16:38:35.293Z,12.40
2019-05-03T16:41:05.159Z,17.90
2019-05-03T16:43:34.834Z,17.23
2019-05-03T16:46:03.323Z,16.23
2019-05-03T16:48:31.713Z,13.27
2019-05-03T16:51:00.092Z,13.53
2019-05-03T16:53:28.472Z,16.83
2019-05-03T16:55:56.859Z,11.10
2019-05-03T16:58:25.244Z,10.37
2019-05-03T17:00:55.315Z,12.43
2019-05-03T17:03:38.245Z,14.43
2019-05-03T17:06:15.481Z,17.67
2019-05-03T17:08:45.603Z,18.23
2019-05-03T17:11:15.612Z,12.87
2019-05-03T17:13:46.199Z,12.80
2019-05-03T17:16:14.618Z,11.87
2019-05-03T17:18:44.630Z,14.13
2019-05-03T17:21:16.009Z,12.23
2019-05-03T17:23:44.646Z,11.83
2019-05-03T17:26:14.980Z,13.07
2019-05-03T17:28:44.750Z,12.83
2019-05-03T17:31:13.364Z,12.37
2019-05-03T17:33:51.541Z,11.10
2019-05-03T17:36:11.864Z,11.83
2019-05-03T17:38:40.307Z,12.10
2019-05-03T17:41:28.399Z,13.87
2019-05-03T17:43:58.411Z,10.60
2019-05-03T17:46:26.795Z,11.70
2019-05-03T17:48:55.500Z,13.60
2019-05-03T17:51:41.755Z,10.73
2019-05-03T17:54:27.104Z,13.23
2019-05-03T17:57:04.590Z,14.53
2019-05-03T17:59:37.467Z,12.30
2019-05-03T18:02:24.137Z,12.30
2019-05-03T18:04:55.025Z,10.50
2019-05-03T18:07:31.159Z,14.53
2019-05-03T18:10:01.171Z,11.87
2019-05-03T18:12:29.544Z,12.50
2019-05-03T18:14:57.931Z,10.07
2019-05-03T18:17:26.299Z,11.47
2019-05-03T18:19:55.372Z,17.83
2019-05-03T18:22:24.696Z,12.07
2019-05-03T18:24:54.646Z,14.77
2019-05-03T18:27:24.948Z,9.87
2019-05-03T18:29:55.290Z,12.30
2019-05-03T18:32:25.040Z,14.13
2019-05-03T18:34:54.629Z,10.37
2019-05-03T18:37:24.490Z,12.60
2019-05-03T18:39:54.718Z,9.43
2019-05-03T18:42:39.741Z,11.97
2019-05-03T18:45:21.743Z,13.47
2019-05-03T18:47:50.119Z,11.47
2019-05-03T18:50:18.499Z,16.53
2019-05-03T18:52:46.887Z,14.80
2019-05-03T18:55:15.260Z,12.97
2019-05-03T18:57:44.750Z,16.93
2019-05-03T19:00:15.374Z,19.37
2019-05-03T19:02:44.534Z,15.07
2019-05-03T19:05:13.033Z,16.13
2019-05-03T19:07:43.051Z,20.77
2019-05-03T19:10:16.021Z,19.87
2019-05-03T19:13:04.509Z,18.77
2019-05-03T19:15:34.599Z,19.20
2019-05-03T19:18:07.459Z,22.57
2019-05-03T19:20:36.211Z,17.50
2019-05-03T19:23:05.018Z,16.27
2019-05-03T19:25:45.406Z,18.60
2019-05-03T19:28:07.440Z,18.60
2019-05-03T19:30:35.529Z,17.03
2019-05-03T19:33:04.364Z,13.00
2019-05-03T19:35:32.831Z,13.87
2019-05-03T19:38:01.207Z,18.03
2019-05-03T19:40:29.587Z,13.60
2019-05-03T19:42:57.963Z,14.77
2019-05-03T19:45:26.364Z,18.07
2019-05-03T19:47:55.232Z,11.80
2019-05-03T19:50:24.850Z,11.20
2019-05-03T19:52:58.559Z,14.83
2019-05-03T19:55:26.947Z,13.40
2019-05-03T19:57:55.324Z,14.47
2019-05-03T20:00:25.681Z,16.93
2019-05-03T20:02:55.724Z,14.67
2019-05-03T20:05:34.705Z,15.53
2019-05-03T20:08:10.708Z,20.27
2019-05-03T20:10:39.081Z,15.43
2019-05-03T20:13:31.386Z,15.57
2019-05-03T20:15:50.116Z,13.23
2019-05-03T20:18:18.471Z,11.73
2019-05-03T20:20:46.864Z,13.97
2019-05-03T20:23:15.235Z,14.43
2019-05-03T20:25:43.603Z,16.27
2019-05-03T20:28:11.996Z,11.87
2019-05-03T20:30:40.360Z,14.93
2019-05-03T20:33:08.739Z,9.43
2019-05-03T20:35:37.117Z,11.90
2019-05-03T20:38:05.499Z,13.77
2019-05-03T20:40:35.047Z,12.67
2019-05-03T20:43:08.243Z,12.63
2019-05-03T20:45:38.260Z,10.67
2019-05-03T20:48:08.281Z,9.43
2019-05-03T20:50:36.651Z,9.97
2019-05-03T20:53:05.446Z,11.50
2019-05-03T20:55:34.718Z,9.60
2019-05-03T20:58:03.235Z,14.90
2019-05-03T21:00:31.615Z,12.87
2019-05-03T21:02:59.983Z,14.77
2019-05-03T21:05:33.042Z,14.90
2019-05-03T21:07:58.478Z,10.60
2019-05-03T21:10:26.854Z,12.93
2019-05-03T21:12:55.224Z,13.67
2019-05-03T21:15:37.307Z,12.33
2019-05-03T21:18:07.317Z,14.27
2019-05-03T21:20:37.326Z,10.90
2019-05-03T21:23:25.944Z,12.63
2019-05-03T21:26:09.083Z,11.40
2019-05-03T21:28:31.875Z,13.47
2019-05-03T21:31:00.251Z,10.60
2019-05-03T21:33:28.615Z,15.67
2019-05-03T21:35:56.995Z,14.53
2019-05-03T21:38:25.371Z,14.23
2019-05-03T21:40:54.643Z,12.17
2019-05-03T21:43:23.263Z,13.47
2019-05-03T21:45:54.379Z,11.90
2019-05-03T21:48:27.527Z,14.30
2019-05-03T21:50:55.895Z,15.60
2019-05-03T21:53:25.101Z,19.60
2019-05-03T21:55:53.739Z,15.40
2019-05-03T21:58:22.123Z,15.70
2019-05-03T22:00:58.031Z,14.07
2019-05-03T22:03:26.400Z,16.87
2019-05-03T22:05:57.850Z,16.47
2019-05-03T22:08:24.959Z,18.60
2019-05-03T22:10:55.278Z,16.17
2019-05-03T22:13:24.607Z,14.87
2019-05-03T22:16:12.825Z,14.00
2019-05-03T22:18:41.902Z,15.30
2019-05-03T22:21:27.112Z,16.87
2019-05-03T22:23:59.531Z,16.20
2019-05-03T22:26:45.888Z,18.90
2019-05-03T22:29:17.123Z,20.13
2019-05-03T22:31:45.306Z,23.03
2019-05-03T22:34:15.073Z,22.73
2019-05-03T22:36:44.417Z,25.20
2019-05-03T22:39:12.887Z,21.43
2019-05-03T22:41:41.271Z,22.33
2019-05-03T22:44:09.649Z,21.37
2019-05-03T22:46:38.023Z,20.20
2019-05-03T22:49:06.416Z,16.70
2019-05-03T22:51:34.784Z,14.83
2019-05-03T22:54:04.705Z,18.17
2019-05-03T22:56:35.447Z,15.23
2019-05-03T22:59:05.349Z,19.33
2019-05-03T23:01:35.236Z,14.80
2019-05-03T23:04:05.438Z,18.33
2019-05-03T23:06:34.049Z,13.33
2019-05-03T23:09:02.433Z,16.00
2019-05-03T23:11:30.799Z,18.90
2019-05-03T23:14:04.570Z,13.40
2019-05-03T23:16:35.395Z,11.57
2019-05-03T23:19:05.310Z,16.97
2019-05-03T23:21:41.263Z,17.50
2019-05-03T23:24:09.659Z,13.80
2019-05-03T23:26:38.023Z,13.47
2019-05-03T23:29:06.395Z,12.23
2019-05-03T23:31:34.779Z,11.27
2019-05-03T23:34:04.856Z,14.73
2019-05-03T23:36:36.138Z,15.30
2019-05-03T23:39:05.227Z,15.13
2019-05-03T23:41:35.137Z,11.87
2019-05-03T23:44:04.738Z,11.10
2019-05-03T23:46:38.319Z,13.57
2019-05-03T23:49:06.716Z,12.60
2019-05-03T23:51:45.722Z,13.63
2019-05-03T23:54:14.969Z,10.20
2019-05-03T23:56:45.632Z,9.80
2019-05-03T23:59:14.877Z,11.63
